createdAt,value
2023-05-18T00:00:42.015Z,894.69
2023-05-18T00:01:42.056Z,889.56
2023-05-18T00:02:42.120Z,827.27
2023-05-18T00:03:42.310Z,997.42
2023-05-18T00:04:42.132Z,1000.00
2023-05-18T00:05:42.142Z,1000.00
2023-05-18T00:06:42.205Z,1000.00
2023-05-18T00:07:42.221Z,1000.00
2023-05-18T00:08:42.285Z,1000.00
2023-05-18T00:09:42.310Z,1000.00
2023-05-18T00:10:42.313Z,1000.00
2023-05-18T00:11:42.320Z,1000.00
2023-05-18T00:12:42.344Z,1000.00
2023-05-18T00:13:42.401Z,1000.00
2023-05-18T00:14:42.449Z,1000.00
2023-05-18T00:15:42.480Z,1000.00
2023-05-18T00:16:42.567Z,1000.00
2023-05-18T00:17:42.640Z,1000.00
2023-05-18T00:18:42.659Z,1000.00
2023-05-18T00:19:42.674Z,1000.00
2023-05-18T00:20:42.712Z,1000.00
2023-05-18T00:21:42.724Z,1000.00
2023-05-18T00:22:42.738Z,1000.00
2023-05-18T00:23:42.771Z,1000.00
2023-05-18T00:24:42.764Z,1000.00
2023-05-18T00:25:42.791Z,1000.00
2023-05-18T00:26:42.830Z,1000.00
2023-05-18T00:27:42.833Z,1000.00
2023-05-18T00:28:42.889Z,1000.00
2023-05-18T00:29:42.908Z,1000.00
2023-05-18T00:30:42.953Z,1000.00
2023-05-18T00:31:43.036Z,1000.00
2023-05-18T00:32:43.083Z,1000.00
2023-05-18T00:33:43.052Z,1000.00
2023-05-18T00:34:43.078Z,1000.00
2023-05-18T00:35:43.150Z,1000.00
2023-05-18T00:36:43.160Z,1000.00
2023-05-18T00:37:43.205Z,1000.00
2023-05-18T00:38:43.274Z,1000.00
2023-05-18T00:39:43.278Z,1000.00
2023-05-18T00:40:43.331Z,1000.00
2023-05-18T00:41:43.384Z,1000.00
2023-05-18T00:42:43.440Z,1000.00
2023-05-18T00:43:43.454Z,1000.00
2023-05-18T00:44:43.457Z,1000.00
2023-05-18T00:45:43.513Z,1000.00
2023-05-18T00:46:43.476Z,1000.00
2023-05-18T00:47:43.514Z,1000.00
2023-05-18T00:48:43.559Z,1000.00
2023-05-18T00:49:43.608Z,994.37
2023-05-18T00:50:43.647Z,1000.00
2023-05-18T00:51:43.699Z,1000.00
2023-05-18T00:52:43.784Z,1000.00
2023-05-18T00:53:44.319Z,1000.00
2023-05-18T00:54:43.824Z,1000.00
2023-05-18T00:55:43.840Z,1000.00
2023-05-18T00:56:43.860Z,1000.00
2023-05-18T00:57:43.905Z,1000.00
2023-05-18T00:58:43.914Z,1000.00
2023-05-18T00:59:43.964Z,1000.00
2023-05-18T01:00:44.057Z,1000.00
2023-05-18T01:01:44.229Z,1000.00
2023-05-18T01:02:44.129Z,1000.00
2023-05-18T01:03:44.092Z,1000.00
2023-05-18T01:04:44.114Z,1000.00
2023-05-18T01:05:44.138Z,1000.00
2023-05-18T01:06:44.185Z,1000.00
2023-05-18T01:07:44.207Z,1000.00
2023-05-18T01:08:44.215Z,1000.00
2023-05-18T01:09:44.214Z,1000.00
2023-05-18T01:10:44.269Z,1000.00
2023-05-18T01:11:44.299Z,1000.00
2023-05-18T01:12:44.352Z,1000.00
2023-05-18T01:13:44.323Z,1000.00
2023-05-18T01:14:44.345Z,1000.00
2023-05-18T01:15:44.428Z,1000.00
2023-05-18T01:16:44.483Z,1000.00
2023-05-18T01:17:44.553Z,1000.00
2023-05-18T01:18:44.567Z,1000.00
2023-05-18T01:19:44.553Z,1000.00
2023-05-18T01:20:44.606Z,1000.00
2023-05-18T01:21:44.612Z,1000.00
2023-05-18T01:22:44.670Z,1000.00
2023-05-18T01:23:44.671Z,1000.00
2023-05-18T01:24:44.743Z,1000.00
2023-05-18T01:25:44.778Z,1000.00
2023-05-18T01:26:44.844Z,1000.00
2023-05-18T01:27:44.864Z,1000.00
2023-05-18T01:28:44.900Z,1000.00
2023-05-18T01:29:45.059Z,1000.00
2023-05-18T01:30:45.000Z,1000.00
2023-05-18T01:31:45.030Z,1000.00
2023-05-18T01:32:45.077Z,1000.00
2023-05-18T01:33:45.038Z,1000.00
2023-05-18T01:34:45.113Z,1000.00
2023-05-18T01:35:45.102Z,1000.00
2023-05-18T01:36:45.163Z,1000.00
2023-05-18T01:37:45.205Z,1000.00
2023-05-18T01:38:45.199Z,1000.00
2023-05-18T01:39:45.280Z,1000.00
2023-05-18T01:40:45.348Z,1000.00
2023-05-18T01:41:45.368Z,1000.00
2023-05-18T01:42:45.366Z,1000.00
2023-05-18T01:43:45.440Z,1000.00
2023-05-18T01:44:45.491Z,1000.00
2023-05-18T01:45:45.536Z,1000.00
2023-05-18T01:46:45.648Z,1000.00
2023-05-18T01:47:45.608Z,1000.00
2023-05-18T01:48:45.614Z,1000.00
2023-05-18T01:49:45.634Z,1000.00
2023-05-18T01:50:45.638Z,1000.00
2023-05-18T01:51:45.676Z,1000.00
2023-05-18T01:52:45.683Z,1000.00
2023-05-18T01:53:45.695Z,1000.00
2023-05-18T01:54:45.737Z,1000.00
2023-05-18T01:55:45.732Z,1000.00
2023-05-18T01:56:45.804Z,1000.00
2023-05-18T01:57:45.806Z,1000.00
2023-05-18T01:58:45.824Z,1000.00
2023-05-18T01:59:45.933Z,1000.00
2023-05-18T02:00:45.930Z,1000.00
2023-05-18T02:01:45.978Z,1000.00
2023-05-18T02:02:46.048Z,1000.00
2023-05-18T02:03:46.017Z,1000.00
2023-05-18T02:04:45.971Z,1000.00
2023-05-18T02:05:45.995Z,1000.00
2023-05-18T02:06:45.985Z,1000.00
2023-05-18T02:07:46.081Z,1000.00
2023-05-18T02:08:46.078Z,1000.00
2023-05-18T02:09:46.147Z,1000.00
2023-05-18T02:10:46.185Z,1000.00
2023-05-18T02:11:46.241Z,1000.00
2023-05-18T02:12:47.101Z,1000.00
2023-05-18T02:13:46.313Z,1000.00
2023-05-18T02:14:46.346Z,1000.00
2023-05-18T02:15:46.428Z,1000.00
2023-05-18T02:16:46.510Z,1000.00
2023-05-18T02:17:46.447Z,1000.00
2023-05-18T02:18:46.488Z,1000.00
2023-05-18T02:19:46.471Z,1000.00
2023-05-18T02:20:46.645Z,1000.00
2023-05-18T02:21:46.529Z,1000.00
2023-05-18T02:22:46.595Z,1000.00
2023-05-18T02:23:46.582Z,1000.00
2023-05-18T02:24:46.614Z,1000.00
2023-05-18T02:25:46.639Z,1000.00
2023-05-18T02:26:46.643Z,1000.00
2023-05-18T02:27:46.707Z,1000.00
2023-05-18T02:28:46.752Z,1000.00
2023-05-18T02:29:46.761Z,1000.00
2023-05-18T02:30:46.791Z,1000.00
2023-05-18T02:31:46.829Z,1000.00
2023-05-18T02:32:46.945Z,1000.00
2023-05-18T02:33:46.873Z,1000.00
2023-05-18T02:34:46.945Z,1000.00
2023-05-18T02:35:46.955Z,1000.00
2023-05-18T02:36:46.951Z,1000.00
2023-05-18T02:37:46.999Z,1000.00
2023-05-18T02:38:47.022Z,1000.00
2023-05-18T02:39:47.039Z,1000.00
2023-05-18T02:40:47.018Z,1000.00
2023-05-18T02:41:47.054Z,1000.00
2023-05-18T02:42:47.066Z,1000.00
2023-05-18T02:43:47.119Z,1000.00
2023-05-18T02:44:47.160Z,1000.00
2023-05-18T02:45:47.240Z,1000.00
2023-05-18T02:46:47.254Z,1000.00
2023-05-18T02:47:47.335Z,1000.00
2023-05-18T02:48:47.326Z,1000.00
2023-05-18T02:49:47.375Z,1000.00
2023-05-18T02:50:47.398Z,1000.00
2023-05-18T02:51:47.410Z,1000.00
2023-05-18T02:52:47.475Z,1000.00
2023-05-18T02:53:47.496Z,1000.00
2023-05-18T02:54:47.513Z,1000.00
2023-05-18T02:55:47.530Z,1000.00
2023-05-18T02:56:47.527Z,1000.00
2023-05-18T02:57:47.579Z,1000.00
2023-05-18T02:58:47.645Z,1000.00
2023-05-18T02:59:47.723Z,1000.00
2023-05-18T03:00:47.720Z,1000.00
2023-05-18T03:01:47.892Z,1000.00
2023-05-18T03:02:47.819Z,1000.00
2023-05-18T03:03:48.004Z,1000.00
2023-05-18T03:04:49.445Z,1000.00
2023-05-18T03:05:47.857Z,1000.00
2023-05-18T03:06:47.865Z,1000.00
2023-05-18T03:07:47.940Z,1000.00
2023-05-18T03:08:47.988Z,1000.00
2023-05-18T03:09:47.998Z,1000.00
2023-05-18T03:10:48.045Z,1000.00
2023-05-18T03:11:48.069Z,1000.00
2023-05-18T03:12:48.122Z,1000.00
2023-05-18T03:13:48.145Z,1000.00
2023-05-18T03:14:48.188Z,1000.00
2023-05-18T03:15:48.234Z,1000.00
2023-05-18T03:16:48.287Z,1000.00
2023-05-18T03:17:48.341Z,1000.00
2023-05-18T03:18:48.383Z,1000.00
2023-05-18T03:19:48.382Z,1000.00
2023-05-18T03:20:48.426Z,1000.00
2023-05-18T03:21:48.471Z,1000.00
2023-05-18T03:22:48.480Z,1000.00
2023-05-18T03:23:48.493Z,1000.00
2023-05-18T03:24:48.482Z,1000.00
2023-05-18T03:25:48.498Z,1000.00
2023-05-18T03:26:48.559Z,1000.00
2023-05-18T03:27:48.554Z,1000.00
2023-05-18T03:28:48.619Z,1000.00
2023-05-18T03:29:48.659Z,1000.00
2023-05-18T03:30:48.704Z,1000.00
2023-05-18T03:31:48.773Z,1000.00
2023-05-18T03:32:48.820Z,1000.00
2023-05-18T03:33:48.818Z,1000.00
2023-05-18T03:34:48.854Z,1000.00
2023-05-18T03:35:48.919Z,1000.00
2023-05-18T03:36:48.920Z,1000.00
2023-05-18T03:37:49.628Z,1000.00
2023-05-18T03:38:48.983Z,1000.00
2023-05-18T03:39:48.996Z,1000.00
2023-05-18T03:40:49.038Z,1000.00
2023-05-18T03:41:49.064Z,1000.00
2023-05-18T03:42:49.106Z,1000.00
2023-05-18T03:43:49.128Z,1000.00
2023-05-18T03:44:49.118Z,895.31
2023-05-18T03:45:49.129Z,751.51
2023-05-18T03:46:49.194Z,771.64
2023-05-18T03:47:49.222Z,797.41
2023-05-18T03:48:49.189Z,747.43
2023-05-18T03:49:49.274Z,565.60
2023-05-18T03:50:49.227Z,419.05
2023-05-18T03:51:49.233Z,352.46
2023-05-18T03:52:49.284Z,268.90
2023-05-18T03:53:49.281Z,263.03
2023-05-18T03:54:49.286Z,295.64
2023-05-18T03:55:49.311Z,305.54
2023-05-18T03:56:49.336Z,251.82
2023-05-18T03:57:49.330Z,181.83
2023-05-18T03:58:49.352Z,138.19
2023-05-18T03:59:49.372Z,106.83
2023-05-18T04:00:49.443Z,141.01
2023-05-18T04:01:49.417Z,89.52
2023-05-18T04:02:49.480Z,73.59
2023-05-18T04:03:49.549Z,84.30
2023-05-18T04:04:49.520Z,78.06
2023-05-18T04:05:49.566Z,91.49
2023-05-18T04:06:49.610Z,98.12
2023-05-18T04:07:49.610Z,153.77
2023-05-18T04:08:49.705Z,249.62
2023-05-18T04:09:49.728Z,356.81
2023-05-18T04:10:49.747Z,340.68
2023-05-18T04:11:49.808Z,345.91
2023-05-18T04:12:49.864Z,300.47
2023-05-18T04:13:49.858Z,272.82
2023-05-18T04:14:49.867Z,430.41
2023-05-18T04:15:49.883Z,764.13
2023-05-18T04:16:49.999Z,1000.00
2023-05-18T04:17:49.964Z,1000.00
2023-05-18T04:18:49.995Z,1000.00
2023-05-18T04:19:49.939Z,657.51
2023-05-18T04:20:49.969Z,392.77
2023-05-18T04:21:49.969Z,244.05
2023-05-18T04:22:50.001Z,204.13
2023-05-18T04:23:50.005Z,157.52
2023-05-18T04:24:50.042Z,100.14
2023-05-18T04:25:50.060Z,80.98
2023-05-18T04:26:50.060Z,86.47
2023-05-18T04:27:51.528Z,101.85
2023-05-18T04:28:50.085Z,93.02
2023-05-18T04:29:50.118Z,90.45
2023-05-18T04:30:50.147Z,112.97
2023-05-18T04:31:50.174Z,123.14
2023-05-18T04:32:50.221Z,126.06
2023-05-18T04:33:50.255Z,130.38
2023-05-18T04:34:50.284Z,133.19
2023-05-18T04:35:50.367Z,153.01
2023-05-18T04:36:50.482Z,186.74
2023-05-18T04:37:50.485Z,241.64
2023-05-18T04:38:50.585Z,277.12
2023-05-18T04:39:50.560Z,283.26
2023-05-18T04:40:50.652Z,265.95
2023-05-18T04:41:50.692Z,281.34
2023-05-18T04:42:50.683Z,277.77
2023-05-18T04:43:50.604Z,261.75
2023-05-18T04:44:50.641Z,253.67
2023-05-18T04:45:50.869Z,246.75
2023-05-18T04:46:50.674Z,270.20
2023-05-18T04:47:50.753Z,277.34
2023-05-18T04:48:50.751Z,254.18
2023-05-18T04:49:50.813Z,203.94
2023-05-18T04:50:50.807Z,181.73
2023-05-18T04:51:50.822Z,184.55
2023-05-18T04:52:50.872Z,184.79
2023-05-18T04:53:50.888Z,180.69
2023-05-18T04:54:50.897Z,188.38
2023-05-18T04:55:50.899Z,188.92
2023-05-18T04:56:50.905Z,216.07
2023-05-18T04:57:51.088Z,228.48
2023-05-18T04:58:50.952Z,240.36
2023-05-18T04:59:50.949Z,240.29
2023-05-18T05:00:50.951Z,265.14
2023-05-18T05:01:51.112Z,287.69
2023-05-18T05:02:51.108Z,328.85
2023-05-18T05:03:51.045Z,360.43
2023-05-18T05:04:51.062Z,339.47
2023-05-18T05:05:51.050Z,342.46
2023-05-18T05:06:51.086Z,376.78
2023-05-18T05:07:51.060Z,362.26
2023-05-18T05:08:51.167Z,368.36
2023-05-18T05:09:51.208Z,314.23
2023-05-18T05:10:51.227Z,256.94
2023-05-18T05:11:51.298Z,210.02
2023-05-18T05:12:51.305Z,196.05
2023-05-18T05:13:51.302Z,181.07
2023-05-18T05:14:51.357Z,154.44
2023-05-18T05:15:51.389Z,140.22
2023-05-18T05:16:51.378Z,107.44
2023-05-18T05:17:51.407Z,92.85
2023-05-18T05:18:51.469Z,89.64
2023-05-18T05:19:51.485Z,97.30
2023-05-18T05:20:51.554Z,97.14
2023-05-18T05:21:51.562Z,96.40
2023-05-18T05:22:51.651Z,104.97
2023-05-18T05:23:51.573Z,106.33
2023-05-18T05:24:51.581Z,111.11
2023-05-18T05:25:51.626Z,127.77
2023-05-18T05:26:51.621Z,150.00
2023-05-18T05:27:51.657Z,188.27
2023-05-18T05:28:51.656Z,163.81
2023-05-18T05:29:51.714Z,122.18
2023-05-18T05:30:51.719Z,89.30
2023-05-18T05:31:51.747Z,82.19
2023-05-18T05:32:51.780Z,74.90
2023-05-18T05:33:51.765Z,66.84
2023-05-18T05:34:51.774Z,47.09
2023-05-18T05:35:51.784Z,45.33
2023-05-18T05:36:51.831Z,44.50
2023-05-18T05:37:51.872Z,43.97
2023-05-18T05:38:51.900Z,45.41
2023-05-18T05:39:51.959Z,47.82
2023-05-18T05:40:51.939Z,47.81
2023-05-18T05:41:51.953Z,41.00
2023-05-18T05:42:51.951Z,36.03
2023-05-18T05:43:52.013Z,31.10
2023-05-18T05:44:51.966Z,25.12
2023-05-18T05:45:52.017Z,22.74
2023-05-18T05:46:52.072Z,19.69
2023-05-18T05:47:52.121Z,25.35
2023-05-18T05:48:52.065Z,29.24
2023-05-18T05:49:52.082Z,29.36
2023-05-18T05:50:52.093Z,28.97
2023-05-18T05:51:52.119Z,30.25
2023-05-18T05:52:52.134Z,29.24
2023-05-18T05:53:52.168Z,30.20
2023-05-18T05:54:52.225Z,33.81
2023-05-18T05:55:52.210Z,31.39
2023-05-18T05:56:52.289Z,29.99
2023-05-18T05:57:52.321Z,22.77
2023-05-18T05:58:52.410Z,20.42
2023-05-18T05:59:52.386Z,26.15
2023-05-18T06:00:52.415Z,30.27
2023-05-18T06:01:52.462Z,27.45
2023-05-18T06:02:52.437Z,26.66
2023-05-18T06:03:52.461Z,23.99
2023-05-18T06:04:52.529Z,23.24
2023-05-18T06:05:52.496Z,23.30
2023-05-18T06:06:52.496Z,23.95
2023-05-18T06:07:52.499Z,21.03
2023-05-18T06:08:52.549Z,21.59
2023-05-18T06:09:52.581Z,21.38
2023-05-18T06:10:52.569Z,20.61
2023-05-18T06:11:52.561Z,19.05
2023-05-18T06:12:52.567Z,17.59
2023-05-18T06:13:52.601Z,18.60
2023-05-18T06:14:52.608Z,22.76
2023-05-18T06:15:52.631Z,21.94
2023-05-18T06:16:52.699Z,20.28
2023-05-18T06:17:52.709Z,19.75
2023-05-18T06:18:52.679Z,22.21
2023-05-18T06:19:52.689Z,18.59
2023-05-18T06:20:52.691Z,19.05
2023-05-18T06:21:52.676Z,19.22
2023-05-18T06:22:52.700Z,15.16
2023-05-18T06:23:52.770Z,13.14
2023-05-18T06:24:52.767Z,13.25
2023-05-18T06:25:52.847Z,13.70
2023-05-18T06:26:52.843Z,16.78
2023-05-18T06:27:52.911Z,17.64
2023-05-18T06:28:52.911Z,15.74
2023-05-18T06:29:52.917Z,13.74
2023-05-18T06:30:52.940Z,10.92
2023-05-18T06:31:53.033Z,8.25
2023-05-18T06:32:53.074Z,6.87
2023-05-18T06:33:53.028Z,7.18
2023-05-18T06:34:53.085Z,7.48
2023-05-18T06:35:53.084Z,8.10
2023-05-18T06:36:53.085Z,9.44
2023-05-18T06:37:53.117Z,8.54
2023-05-18T06:38:53.124Z,8.57
2023-05-18T06:39:53.189Z,8.27
2023-05-18T06:40:53.217Z,8.53
2023-05-18T06:41:53.259Z,9.15
2023-05-18T06:42:53.306Z,8.29
2023-05-18T06:43:53.346Z,8.38
2023-05-18T06:44:53.334Z,6.76
2023-05-18T06:45:53.433Z,5.41
2023-05-18T06:46:53.384Z,6.03
2023-05-18T06:47:53.452Z,4.03
2023-05-18T06:48:53.445Z,1.95
2023-05-18T06:49:53.464Z,1.12
2023-05-18T06:50:53.499Z,1.09
2023-05-18T06:51:53.490Z,1.30
2023-05-18T06:52:53.499Z,1.03
2023-05-18T06:53:53.569Z,0.68
2023-05-18T06:54:53.567Z,0.53
2023-05-18T06:55:53.599Z,0.51
2023-05-18T06:56:53.704Z,0.62
2023-05-18T06:57:53.696Z,0.87
2023-05-18T06:58:53.729Z,0.89
2023-05-18T06:59:53.818Z,0.76
2023-05-18T07:00:53.831Z,0.57
2023-05-18T07:01:53.948Z,0.59
2023-05-18T07:02:53.921Z,0.71
2023-05-18T07:03:53.915Z,0.73
2023-05-18T07:04:53.927Z,0.82
2023-05-18T07:05:53.909Z,0.66
2023-05-18T07:06:53.987Z,0.64
2023-05-18T07:07:54.073Z,0.49
2023-05-18T07:08:54.028Z,0.40
2023-05-18T07:09:53.997Z,0.39
2023-05-18T07:10:54.031Z,0.50
2023-05-18T07:11:54.143Z,0.54
2023-05-18T07:12:54.187Z,0.50
2023-05-18T07:13:54.126Z,0.54
2023-05-18T07:14:54.192Z,0.50
2023-05-18T07:15:54.239Z,0.49
2023-05-18T07:16:54.228Z,0.34
2023-05-18T07:17:54.363Z,0.34
2023-05-18T07:18:54.357Z,0.34
2023-05-18T07:19:54.345Z,0.34
2023-05-18T07:20:54.404Z,0.34
2023-05-18T07:21:54.476Z,0.34
2023-05-18T07:22:54.416Z,0.34
2023-05-18T07:23:54.470Z,0.38
2023-05-18T07:24:54.458Z,0.64
2023-05-18T07:25:54.483Z,1.27
2023-05-18T07:26:54.502Z,1.87
2023-05-18T07:27:54.664Z,1.07
2023-05-18T07:29:54.616Z,0.50
2023-05-18T07:30:54.641Z,0.48
2023-05-18T07:31:54.880Z,0.39
2023-05-18T07:32:54.804Z,0.41
2023-05-18T07:33:54.708Z,0.36
2023-05-18T07:34:54.747Z,0.36
2023-05-18T07:35:54.755Z,0.82
2023-05-18T07:36:54.795Z,0.86
2023-05-18T07:37:54.835Z,0.64
2023-05-18T07:38:54.940Z,0.63
2023-05-18T07:39:54.931Z,0.77
2023-05-18T07:40:54.929Z,0.60
2023-05-18T07:41:54.922Z,0.48
2023-05-18T07:42:55.001Z,0.50
2023-05-18T07:43:55.013Z,0.52
2023-05-18T07:44:55.038Z,0.50
2023-05-18T07:45:55.088Z,0.59
2023-05-18T07:46:55.069Z,0.50
2023-05-18T07:47:55.185Z,0.46
2023-05-18T07:48:55.109Z,0.63
2023-05-18T07:49:55.196Z,0.70
2023-05-18T07:50:55.209Z,0.55
2023-05-18T07:51:55.230Z,0.69
2023-05-18T07:52:55.324Z,0.60
2023-05-18T07:53:55.321Z,0.50
2023-05-18T07:54:55.353Z,0.49
2023-05-18T07:55:55.335Z,0.55
2023-05-18T07:56:55.597Z,0.65
2023-05-18T07:57:55.369Z,0.69
2023-05-18T07:58:55.427Z,0.65
2023-05-18T07:59:55.463Z,0.63
2023-05-18T08:00:55.537Z,0.71
2023-05-18T08:01:55.561Z,0.68
2023-05-18T08:02:55.705Z,0.69
2023-05-18T08:03:55.665Z,0.46
2023-05-18T08:04:55.614Z,0.34
2023-05-18T08:05:55.672Z,0.41
2023-05-18T08:06:55.664Z,0.50
2023-05-18T08:07:55.650Z,0.56
2023-05-18T08:08:55.712Z,0.62
2023-05-18T08:09:55.738Z,0.68
2023-05-18T08:10:55.793Z,0.85
2023-05-18T08:11:55.828Z,0.60
2023-05-18T08:12:55.835Z,0.34
2023-05-18T08:13:55.858Z,0.42
2023-05-18T08:14:55.913Z,0.61
2023-05-18T08:16:09.728Z,0.50
2023-05-18T08:16:56.974Z,0.50
2023-05-18T08:17:55.997Z,0.34
2023-05-18T08:18:55.962Z,0.34
2023-05-18T08:19:55.947Z,0.34
2023-05-18T08:20:55.898Z,0.39
2023-05-18T08:21:55.920Z,0.54
2023-05-18T08:22:55.909Z,0.61
2023-05-18T08:23:55.898Z,0.72
2023-05-18T08:24:55.893Z,0.76
2023-05-18T08:25:55.885Z,0.62
2023-05-18T08:26:55.879Z,0.48
2023-05-18T08:27:55.858Z,0.42
2023-05-18T08:28:55.862Z,0.47
2023-05-18T08:29:55.852Z,0.46
2023-05-18T08:30:55.847Z,0.39
2023-05-18T08:31:55.911Z,0.55
2023-05-18T08:32:55.907Z,0.43
2023-05-18T08:33:55.915Z,0.38
2023-05-18T08:34:55.928Z,0.41
2023-05-18T08:35:55.964Z,0.39
2023-05-18T08:36:56.022Z,0.37
2023-05-18T08:37:56.058Z,0.34
2023-05-18T08:38:56.117Z,0.34
2023-05-18T08:39:56.176Z,0.34
2023-05-18T08:40:56.176Z,0.45
2023-05-18T08:41:56.242Z,0.49
2023-05-18T08:42:56.247Z,0.61
2023-05-18T08:43:56.276Z,0.66
2023-05-18T08:44:56.281Z,0.67
2023-05-18T08:45:56.332Z,0.96
2023-05-18T08:46:56.409Z,0.94
2023-05-18T08:47:56.522Z,1.34
2023-05-18T08:48:56.447Z,1.23
2023-05-18T08:49:56.462Z,1.45
2023-05-18T08:50:56.570Z,1.31
2023-05-18T08:51:56.563Z,1.66
2023-05-18T08:52:56.624Z,1.74
2023-05-18T08:53:56.631Z,1.59
2023-05-18T08:54:56.718Z,0.98
2023-05-18T08:55:56.722Z,0.62
2023-05-18T08:56:56.725Z,0.51
2023-05-18T08:57:56.800Z,0.45
2023-05-18T08:58:56.826Z,0.52
2023-05-18T08:59:56.855Z,0.35
2023-05-18T09:00:56.910Z,0.34
2023-05-18T09:01:56.955Z,0.34
2023-05-18T09:02:57.097Z,0.52
2023-05-18T09:03:57.036Z,0.56
2023-05-18T09:04:57.108Z,0.48
2023-05-18T09:05:57.077Z,0.38
2023-05-18T09:06:57.109Z,0.49
2023-05-18T09:07:57.156Z,0.55
2023-05-18T09:08:57.131Z,0.51
2023-05-18T09:09:57.176Z,0.53
2023-05-18T09:10:57.221Z,0.52
2023-05-18T09:11:57.246Z,0.61
2023-05-18T09:12:57.296Z,0.53
2023-05-18T09:13:57.365Z,0.76
2023-05-18T09:14:57.358Z,1.27
2023-05-18T09:15:57.377Z,1.26
2023-05-18T09:16:57.378Z,1.06
2023-05-18T09:17:57.415Z,0.85
2023-05-18T09:18:57.448Z,0.56
2023-05-18T09:19:57.503Z,0.69
2023-05-18T09:20:57.501Z,0.96
2023-05-18T09:21:57.543Z,0.89
2023-05-18T09:22:57.535Z,0.85
2023-05-18T09:23:57.578Z,0.74
2023-05-18T09:24:57.637Z,0.94
2023-05-18T09:25:57.694Z,0.62
2023-05-18T09:26:57.701Z,0.37
2023-05-18T09:27:57.744Z,0.34
2023-05-18T09:28:57.829Z,0.47
2023-05-18T09:29:57.748Z,0.56
2023-05-18T09:30:57.846Z,0.44
2023-05-18T09:31:57.812Z,0.44
2023-05-18T09:32:57.951Z,0.60
2023-05-18T09:33:57.902Z,0.75
2023-05-18T09:34:57.876Z,0.57
2023-05-18T09:35:57.939Z,0.62
2023-05-18T09:36:57.988Z,0.55
2023-05-18T09:37:57.985Z,0.49
2023-05-18T09:38:58.029Z,0.70
2023-05-18T09:39:58.039Z,1.00
2023-05-18T09:40:58.049Z,1.24
2023-05-18T09:41:58.099Z,1.48
2023-05-18T09:42:58.136Z,1.56
2023-05-18T09:43:58.176Z,1.57
2023-05-18T09:44:58.224Z,1.36
2023-05-18T09:45:58.331Z,0.71
2023-05-18T09:46:58.336Z,0.55
2023-05-18T09:47:58.375Z,0.51
2023-05-18T09:48:58.354Z,0.58
2023-05-18T09:49:58.436Z,0.72
2023-05-18T09:50:58.464Z,0.75
2023-05-18T09:51:58.456Z,1.06
2023-05-18T09:52:58.479Z,1.03
2023-05-18T09:53:58.540Z,1.23
2023-05-18T09:54:58.582Z,0.86
2023-05-18T09:55:58.643Z,0.81
2023-05-18T09:57:09.661Z,0.76
2023-05-18T09:57:59.625Z,0.76
2023-05-18T09:58:58.612Z,0.82
2023-05-18T09:59:58.629Z,0.99
2023-05-18T10:00:58.643Z,1.29
2023-05-18T10:01:58.634Z,1.63
2023-05-18T10:02:58.637Z,2.10
2023-05-18T10:03:58.609Z,2.36
2023-05-18T10:04:58.647Z,2.98
2023-05-18T10:05:58.583Z,2.99
2023-05-18T10:06:58.590Z,3.69
2023-05-18T10:07:58.661Z,3.64
2023-05-18T10:08:58.573Z,3.29
2023-05-18T10:09:58.580Z,4.20
2023-05-18T10:10:58.594Z,4.09
2023-05-18T10:11:58.563Z,5.91
2023-05-18T10:12:58.578Z,5.44
2023-05-18T10:13:58.550Z,5.93
2023-05-18T10:14:58.543Z,4.07
2023-05-18T10:15:58.584Z,4.11
2023-05-18T10:17:14.343Z,7.07
2023-05-18T10:17:59.648Z,5.63
2023-05-18T10:18:58.638Z,2.92
2023-05-18T10:19:58.531Z,2.26
2023-05-18T10:20:59.988Z,2.73
2023-05-18T10:21:58.557Z,3.48
2023-05-18T10:22:58.572Z,5.00
2023-05-18T10:23:58.572Z,5.06
2023-05-18T10:24:58.525Z,3.30
2023-05-18T10:25:58.508Z,2.31
2023-05-18T10:26:58.519Z,2.80
2023-05-18T10:27:58.541Z,2.63
2023-05-18T10:28:58.498Z,1.92
2023-05-18T10:29:58.471Z,1.76
2023-05-18T10:30:58.543Z,1.81
2023-05-18T10:32:00.312Z,1.44
2023-05-18T10:32:58.541Z,0.76
2023-05-18T10:33:58.495Z,0.48
2023-05-18T10:34:58.476Z,0.39
2023-05-18T10:35:58.463Z,0.49
2023-05-18T10:36:58.609Z,0.41
2023-05-18T10:37:58.449Z,0.41
2023-05-18T10:38:59.239Z,0.53
2023-05-18T10:39:58.477Z,0.50
2023-05-18T10:40:58.475Z,0.50
2023-05-18T10:41:58.445Z,0.52
2023-05-18T10:42:58.444Z,0.69
2023-05-18T10:43:58.428Z,0.62
2023-05-18T10:44:58.414Z,1.09
2023-05-18T10:45:58.471Z,1.50
2023-05-18T10:46:58.470Z,1.58
2023-05-18T10:47:58.450Z,1.34
2023-05-18T10:48:58.421Z,1.13
2023-05-18T10:49:58.387Z,0.73
2023-05-18T10:50:58.396Z,0.47
2023-05-18T10:51:58.382Z,0.40
2023-05-18T10:52:58.380Z,0.36
2023-05-18T10:53:58.367Z,0.36
2023-05-18T10:54:58.370Z,0.49
2023-05-18T10:55:58.370Z,0.63
2023-05-18T10:56:58.360Z,0.95
2023-05-18T10:57:58.328Z,1.34
2023-05-18T10:58:58.381Z,2.05
2023-05-18T10:59:58.332Z,2.42
2023-05-18T11:00:58.337Z,2.38
2023-05-18T11:01:58.389Z,1.92
2023-05-18T11:02:58.355Z,1.51
2023-05-18T11:03:58.302Z,1.41
2023-05-18T11:04:58.338Z,1.24
2023-05-18T11:05:58.284Z,0.71
2023-05-18T11:06:58.321Z,0.65
2023-05-18T11:07:58.286Z,0.66
2023-05-18T11:08:58.297Z,0.83
2023-05-18T11:09:58.260Z,1.25
2023-05-18T11:10:58.325Z,1.39
2023-05-18T11:11:58.328Z,1.05
2023-05-18T11:12:58.387Z,0.92
2023-05-18T11:13:58.450Z,0.62
2023-05-18T11:14:58.428Z,0.49
2023-05-18T11:15:58.552Z,0.50
2023-05-18T11:16:58.542Z,0.58
2023-05-18T11:17:58.616Z,0.62
2023-05-18T11:18:58.649Z,0.65
2023-05-18T11:19:58.662Z,0.72
2023-05-18T11:20:58.692Z,0.93
2023-05-18T11:21:58.738Z,1.23
2023-05-18T11:22:58.775Z,1.24
2023-05-18T11:23:58.729Z,1.09
2023-05-18T11:24:58.791Z,1.05
2023-05-18T11:25:58.853Z,1.56
2023-05-18T11:26:58.856Z,1.93
2023-05-18T11:27:58.931Z,1.90
2023-05-18T11:28:58.975Z,2.47
2023-05-18T11:30:14.089Z,3.24
2023-05-18T11:31:00.002Z,1.85
2023-05-18T11:31:59.021Z,1.37
2023-05-18T11:32:59.129Z,1.07
2023-05-18T11:33:58.940Z,1.05
2023-05-18T11:34:58.960Z,0.98
2023-05-18T11:35:58.987Z,1.01
2023-05-18T11:36:58.934Z,1.35
2023-05-18T11:37:58.919Z,1.66
2023-05-18T11:38:58.936Z,1.83
2023-05-18T11:40:01.130Z,1.68
2023-05-18T11:40:58.890Z,1.68
2023-05-18T11:41:58.897Z,1.75
2023-05-18T11:42:58.894Z,1.85
2023-05-18T11:43:58.887Z,1.63
2023-05-18T11:44:58.906Z,1.35
2023-05-18T11:45:59.623Z,1.56
2023-05-18T11:46:58.856Z,1.53
2023-05-18T11:47:58.895Z,1.72
2023-05-18T11:48:58.864Z,2.12
2023-05-18T11:49:58.815Z,2.07
2023-05-18T11:50:58.860Z,1.86
2023-05-18T11:51:59.185Z,1.65
2023-05-18T11:52:58.806Z,1.55
2023-05-18T11:53:58.827Z,1.60
2023-05-18T11:54:58.838Z,1.89
2023-05-18T11:55:58.799Z,1.65
2023-05-18T11:56:58.794Z,1.87
2023-05-18T11:57:58.779Z,1.81
2023-05-18T11:58:58.793Z,2.21
2023-05-18T11:59:58.787Z,2.45
2023-05-18T12:00:58.797Z,2.06
2023-05-18T12:01:58.805Z,2.29
2023-05-18T12:02:58.900Z,2.84
2023-05-18T12:03:58.858Z,2.68
2023-05-18T12:04:58.747Z,2.59
2023-05-18T12:05:58.714Z,2.63
2023-05-18T12:06:58.745Z,2.68
2023-05-18T12:07:58.695Z,2.91
2023-05-18T12:08:59.278Z,4.93
2023-05-18T12:09:58.672Z,6.75
2023-05-18T12:10:58.740Z,4.54
2023-05-18T12:11:58.729Z,3.48
2023-05-18T12:12:58.686Z,3.19
2023-05-18T12:13:58.656Z,2.92
2023-05-18T12:14:58.647Z,3.81
2023-05-18T12:15:59.243Z,3.53
2023-05-18T12:16:58.702Z,4.64
2023-05-18T12:17:58.678Z,7.80
2023-05-18T12:18:58.663Z,4.37
2023-05-18T12:19:58.672Z,2.99
2023-05-18T12:20:58.777Z,2.30
2023-05-18T12:21:59.142Z,2.84
2023-05-18T12:22:58.748Z,2.98
2023-05-18T12:23:58.807Z,3.16
2023-05-18T12:24:58.852Z,2.84
2023-05-18T12:25:58.892Z,2.73
2023-05-18T12:26:58.925Z,3.53
2023-05-18T12:27:58.921Z,3.81
2023-05-18T12:28:58.970Z,2.91
2023-05-18T12:29:58.972Z,2.49
2023-05-18T12:30:59.036Z,2.32
2023-05-18T12:31:59.104Z,2.38
2023-05-18T12:32:59.183Z,3.12
2023-05-18T12:33:59.477Z,3.68
2023-05-18T12:34:59.147Z,3.53
2023-05-18T12:35:59.186Z,4.10
2023-05-18T12:36:59.182Z,4.00
2023-05-18T12:37:59.226Z,3.86
2023-05-18T12:38:59.243Z,4.04
2023-05-18T12:39:59.272Z,3.83
2023-05-18T12:40:59.316Z,3.23
2023-05-18T12:41:59.315Z,2.55
2023-05-18T12:42:59.367Z,2.70
2023-05-18T12:43:59.410Z,2.62
2023-05-18T12:44:59.448Z,2.74
2023-05-18T12:46:00.218Z,2.95
2023-05-18T12:46:59.503Z,2.56
2023-05-18T12:47:59.622Z,2.26
2023-05-18T12:48:59.539Z,1.56